Time;durP1;ratioP1;P1;durP2;ratioP2;P2;SDS_P1;SDS_P2;PMS_P1;PMS_P2;Temp;Humidity;BMP_temperature;BMP_pressure;BME280_temperature;BME280_humidity;BME280_pressure;Samples;Min_cycle;Max_cycle;Signal;HPM_P1;HPM_P2
2023/09/11 00:01:39;;;;;;;42.07;24.57;;;;;;;15.12;100.00;100994.28;5029172;28;20434;-81
2023/09/11 00:04:07;;;;;;;41.35;22.33;;;;;;;15.06;100.00;100986.44;5026171;28;20440;-81
2023/09/11 00:06:37;;;;;;;45.75;21.65;;;;;;;15.02;100.00;100985.44;5024119;28;20838;-81
2023/09/11 00:09:05;;;;;;;55.28;23.30;;;;;;;14.97;100.00;100980.88;5028530;28;20422;-80
2023/09/11 00:11:33;;;;;;;35.55;22.58;;;;;;;14.99;100.00;100988.78;5029945;28;20427;-80
2023/09/11 00:14:02;;;;;;;33.15;21.48;;;;;;;15.00;100.00;100983.00;5030261;28;20419;-80
2023/09/11 00:16:35;;;;;;;34.42;21.67;;;;;;;14.99;100.00;100986.03;5029905;28;20419;-80
2023/09/11 00:19:04;;;;;;;36.33;22.83;;;;;;;14.96;100.00;100987.47;5028145;28;20426;-80
2023/09/11 00:21:38;;;;;;;36.88;22.70;;;;;;;14.93;100.00;100994.34;5030500;28;20911;-80
2023/09/11 00:24:12;;;;;;;38.45;22.33;;;;;;;14.90;100.00;100983.16;5027284;28;20415;-81
2023/09/11 00:26:45;;;;;;;35.05;22.20;;;;;;;14.84;100.00;100978.91;5025557;28;20440;-80
2023/09/11 00:29:13;;;;;;;34.80;22.23;;;;;;;14.77;100.00;100971.88;5028201;28;20418;-81
2023/09/11 00:31:41;;;;;;;34.35;20.67;;;;;;;14.77;100.00;100962.84;5029451;28;20438;-80
2023/09/11 00:34:09;;;;;;;34.47;21.67;;;;;;;14.82;100.00;100962.78;5032428;28;20430;-80
2023/09/11 00:36:44;;;;;;;39.95;23.58;;;;;;;14.87;100.00;100970.88;5046256;28;20803;-80
2023/09/11 00:39:17;;;;;;;40.00;23.77;;;;;;;14.93;100.00;100960.66;5032899;28;20426;-81
2023/09/11 00:41:50;;;;;;;36.47;23.10;;;;;;;15.00;100.00;100960.25;5034514;28;20493;-80
2023/09/11 00:44:24;;;;;;;38.15;23.02;;;;;;;15.03;100.00;100962.41;5034465;28;20494;-81
2023/09/11 00:46:52;;;;;;;39.55;22.85;;;;;;;15.07;100.00;100960.69;5029112;28;20438;-83
2023/09/11 00:49:21;;;;;;;45.90;23.95;;;;;;;15.05;100.00;100950.03;5032891;28;20422;-82
2023/09/11 00:51:56;;;;;;;125.10;28.17;;;;;;;15.11;100.00;100943.31;5033810;28;20418;-81
2023/09/11 00:54:24;;;;;;;142.75;27.23;;;;;;;15.13;100.00;100941.09;5032749;28;20410;-82
2023/09/11 00:56:53;;;;;;;55.05;27.05;;;;;;;15.13;100.00;100941.09;5031376;28;20418;-81
2023/09/11 00:59:22;;;;;;;123.80;27.40;;;;;;;15.10;100.00;100935.41;5033210;28;20426;-81
2023/09/11 01:01:50;;;;;;;169.15;25.63;;;;;;;15.05;100.00;100930.00;5032285;28;20426;-83
2023/09/11 01:04:23;;;;;;;57.70;24.73;;;;;;;15.09;100.00;100931.84;5048038;28;20430;-82
2023/09/11 01:06:52;;;;;;;51.67;25.23;;;;;;;15.09;100.00;100931.03;5029018;28;20923;-81
2023/09/11 01:09:22;;;;;;;39.80;24.30;;;;;;;15.10;100.00;100927.16;5033565;28;20422;-80
2023/09/11 01:11:55;;;;;;;59.35;24.77;;;;;;;15.11;100.00;100915.91;5028078;28;20432;-81
2023/09/11 01:14:24;;;;;;;60.53;25.10;;;;;;;15.03;100.00;100918.53;5032053;28;20776;-81
2023/09/11 01:17:01;;;;;;;35.78;24.55;;;;;;;15.01;100.00;100921.59;5033215;28;20427;-83
2023/09/11 01:19:51;;;;;;;44.78;23.20;;;;;;;14.88;100.00;100919.66;5033135;28;21112;-82
2023/09/11 01:22:33;;;;;;;37.65;22.80;;;;;;;14.90;100.00;100911.91;5028230;28;20415;-81
2023/09/11 01:25:35;;;;;;;36.15;23.00;;;;;;;14.92;100.00;100912.44;5030921;28;20442;-82
2023/09/11 01:28:18;;;;;;;43.43;24.53;;;;;;;14.92;100.00;100913.25;5040492;28;20438;-80
2023/09/11 01:30:50;;;;;;;36.33;24.92;;;;;;;14.97;100.00;100917.84;5032750;28;20407;-82
2023/09/11 01:33:18;;;;;;;44.45;24.70;;;;;;;14.98;100.00;100922.19;5031844;28;20783;-83
2023/09/11 01:35:46;;;;;;;45.88;25.48;;;;;;;15.01;100.00;100924.34;5032169;28;20446;-81
2023/09/11 01:38:20;;;;;;;48.37;25.40;;;;;;;15.00;100.00;100919.97;5031937;28;20427;-82
2023/09/11 01:40:58;;;;;;;40.00;25.98;;;;;;;15.03;100.00;100924.03;5032135;28;20783;-81
2023/09/11 01:43:31;;;;;;;41.00;26.42;;;;;;;15.03;100.00;100924.03;5027146;28;20912;-81
2023/09/11 01:46:06;;;;;;;43.10;26.63;;;;;;;15.01;100.00;100913.38;5031254;28;20423;-83
2023/09/11 01:48:36;;;;;;;48.00;25.90;;;;;;;14.95;100.00;100911.81;5027740;28;20427;-82
2023/09/11 01:51:11;;;;;;;43.83;25.35;;;;;;;14.95;100.00;100906.34;5032038;28;20418;-82
2023/09/11 01:53:40;;;;;;;47.20;25.27;;;;;;;15.00;100.00;100902.69;5040495;28;20503;-82
2023/09/11 01:56:14;;;;;;;66.72;26.27;;;;;;;14.93;100.00;100903.91;5027766;28;20899;-82
2023/09/11 01:58:43;;;;;;;34.95;24.42;;;;;;;14.93;100.00;100897.63;5030488;28;20454;-82
2023/09/11 02:01:18;;;;;;;41.00;24.90;;;;;;;14.95;100.00;100898.13;5027624;28;20438;-82
2023/09/11 02:03:51;;;;;;;50.55;26.02;;;;;;;14.86;100.00;100895.28;5030957;28;20997;-83
2023/09/11 02:06:20;;;;;;;78.07;23.98;;;;;;;14.87;100.00;100905.13;5031060;28;20629;-81
2023/09/11 02:08:48;;;;;;;44.90;23.02;;;;;;;14.68;100.00;100898.91;5029408;28;20425;-81
2023/09/11 02:11:22;;;;;;;86.68;23.75;;;;;;;14.69;100.00;100895.06;5028612;28;20456;-81
2023/09/11 02:13:55;;;;;;;51.70;23.48;;;;;;;14.64;100.00;100898.72;5030923;28;20423;-82
2023/09/11 02:16:24;;;;;;;39.42;23.10;;;;;;;14.67;100.00;100894.56;5022996;28;20966;-84
2023/09/11 02:18:58;;;;;;;59.83;23.45;;;;;;;14.51;100.00;100883.84;5026891;28;20427;-82
2023/09/11 02:21:26;;;;;;;69.90;23.27;;;;;;;14.42;100.00;100882.94;5027526;28;21181;-82
2023/09/11 02:23:54;;;;;;;39.00;23.25;;;;;;;14.54;100.00;100883.25;5036982;28;20438;-81
2023/09/11 02:26:22;;;;;;;35.80;24.20;;;;;;;14.57;100.00;100884.56;5030375;28;20422;-81
2023/09/11 02:28:50;;;;;;;36.00;24.20;;;;;;;14.61;100.00;100882.84;5029876;28;20423;-81
2023/09/11 02:31:25;;;;;;;101.93;23.58;;;;;;;14.46;100.00;100883.94;5024208;28;20450;-81
2023/09/11 02:33:58;;;;;;;42.42;23.55;;;;;;;14.48;100.00;100880.91;5028543;28;20919;-81
2023/09/11 02:36:31;;;;;;;42.22;23.40;;;;;;;14.52;100.00;100881.94;5026780;28;20427;-82
2023/09/11 02:39:05;;;;;;;104.72;23.08;;;;;;;14.56;100.00;100880.22;5029312;28;20434;-81
2023/09/11 02:41:38;;;;;;;62.08;22.20;;;;;;;14.35;100.00;100877.84;5028223;28;20795;-82
2023/09/11 02:44:07;;;;;;;39.55;22.77;;;;;;;14.44;100.00;100889.72;5031906;28;20756;-84
2023/09/11 02:46:36;;;;;;;80.82;24.30;;;;;;;14.47;100.00;100888.28;5029531;28;20442;-81
2023/09/11 02:49:04;;;;;;;164.25;24.45;;;;;;;14.36;100.00;100889.59;5046242;28;20427;-81
2023/09/11 02:51:32;;;;;;;144.35;23.90;;;;;;;14.20;100.00;100889.06;5029089;28;20430;-82
2023/09/11 02:54:01;;;;;;;147.27;23.45;;;;;;;14.20;100.00;100889.06;5028995;28;20441;-81
2023/09/11 02:56:29;;;;;;;63.17;23.25;;;;;;;14.21;100.00;100882.44;5029629;28;20430;-82
2023/09/11 02:59:02;;;;;;;46.72;23.23;;;;;;;14.19;100.00;100884.69;5029805;28;20429;-82
2023/09/11 03:01:37;;;;;;;41.70;22.98;;;;;;;14.25;100.00;100872.50;5027895;28;20441;-81
2023/09/11 03:04:05;;;;;;;45.60;22.93;;;;;;;14.32;100.00;100874.88;5045999;28;20438;-81
2023/09/11 03:06:38;;;;;;;43.63;22.42;;;;;;;14.34;100.00;100881.69;5028028;28;20420;-83
2023/09/11 03:09:06;;;;;;;42.75;22.40;;;;;;;14.25;100.00;100878.81;5046570;28;20431;-82
2023/09/11 03:11:35;;;;;;;46.33;23.65;;;;;;;14.27;100.00;100881.25;5031300;28;20768;-83
2023/09/11 03:14:03;;;;;;;40.55;22.27;;;;;;;14.22;100.00;100873.94;5030420;28;20434;-82
2023/09/11 03:16:39;;;;;;;71.38;22.55;;;;;;;14.24;100.00;100879.94;5030173;28;20485;-81
2023/09/11 03:19:07;;;;;;;41.20;22.67;;;;;;;14.31;100.00;100884.19;5027786;28;20780;-81
2023/09/11 03:21:36;;;;;;;47.40;23.13;;;;;;;14.35;100.00;100879.75;5026589;28;20439;-82
2023/09/11 03:24:05;;;;;;;56.92;20.75;;;;;;;14.18;100.00;100880.31;5029640;28;20442;-81
2023/09/11 03:26:33;;;;;;;171.32;23.27;;;;;;;14.15;100.00;100887.19;5030195;28;20423;-81
2023/09/11 03:29:01;;;;;;;97.00;21.08;;;;;;;14.07;100.00;100880.50;5030120;28;20431;-81
2023/09/11 03:31:34;;;;;;;122.90;21.77;;;;;;;14.18;100.00;100874.84;5026194;28;20422;-81
2023/09/11 03:34:04;;;;;;;39.90;20.77;;;;;;;14.23;100.00;100872.03;5030071;28;20411;-81
2023/09/11 03:36:37;;;;;;;75.03;21.85;;;;;;;14.24;100.00;100865.44;5042895;28;20422;-82
2023/09/11 03:39:06;;;;;;;145.53;21.67;;;;;;;14.10;100.00;100870.88;5029927;28;20419;-82
2023/09/11 03:41:34;;;;;;;94.82;21.45;;;;;;;14.14;100.00;100862.88;5029757;28;20418;-81
2023/09/11 03:44:03;;;;;;;50.30;20.98;;;;;;;14.10;100.00;100854.47;5046472;28;20407;-81
2023/09/11 03:46:36;;;;;;;38.65;20.80;;;;;;;14.19;100.00;100854.56;5029045;28;20799;-82
2023/09/11 03:49:05;;;;;;;39.55;20.85;;;;;;;14.24;100.00;100854.50;5027772;28;20415;-82
2023/09/11 03:51:34;;;;;;;36.33;21.85;;;;;;;14.26;100.00;100855.00;5026786;28;20427;-82
2023/09/11 03:54:07;;;;;;;107.93;21.17;;;;;;;14.20;100.00;100853.47;5023569;28;20419;-80
2023/09/11 03:56:41;;;;;;;53.65;20.48;;;;;;;14.11;100.00;100851.41;5027533;28;20414;-81
2023/09/11 03:59:14;;;;;;;100.03;19.90;;;;;;;14.21;100.00;100852.34;5029116;28;20462;-81
2023/09/11 04:01:47;;;;;;;111.22;20.42;;;;;;;14.07;100.00;100835.88;5029452;28;20434;-81
2023/09/11 04:04:22;;;;;;;117.43;19.60;;;;;;;14.07;100.00;100836.72;5030756;28;20430;-82
2023/09/11 04:06:50;;;;;;;48.97;19.65;;;;;;;14.05;100.00;100835.38;5030528;28;20411;-81
2023/09/11 04:09:18;;;;;;;137.68;20.98;;;;;;;14.09;100.00;100839.94;5028821;28;20426;-82
2023/09/11 04:11:46;;;;;;;126.80;20.92;;;;;;;13.97;100.00;100838.78;5029365;28;20441;-81
2023/09/11 04:14:15;;;;;;;167.48;20.45;;;;;;;13.92;100.00;100828.72;5024100;28;20418;-81
2023/09/11 04:16:49;;;;;;;40.05;20.05;;;;;;;14.01;100.00;100829.69;5025498;28;20415;-81
2023/09/11 04:19:23;;;;;;;107.07;21.02;;;;;;;13.90;100.00;100837.25;5030247;28;20399;-82
2023/09/11 04:21:51;;;;;;;65.40;19.92;;;;;;;13.97;100.00;100839.59;5028244;28;20427;-82
2023/09/11 04:24:20;;;;;;;62.35;20.25;;;;;;;13.94;100.00;100841.00;5028086;28;20411;-81
2023/09/11 04:26:53;;;;;;;48.03;19.83;;;;;;;13.91;100.00;100843.53;5042520;28;20922;-81
2023/09/11 04:29:22;;;;;;;33.90;20.52;;;;;;;14.01;100.00;100829.69;5026915;28;20427;-84
2023/09/11 04:31:55;;;;;;;35.83;20.50;;;;;;;14.06;100.00;100837.00;5029236;28;20438;-83
2023/09/11 04:34:30;;;;;;;47.60;20.42;;;;;;;14.05;100.00;100833.44;5027665;28;20937;-82
2023/09/11 04:37:04;;;;;;;45.80;19.85;;;;;;;14.01;100.00;100832.41;5037943;28;20423;-82
2023/09/11 04:39:32;;;;;;;53.08;20.83;;;;;;;14.09;100.00;100829.00;5028403;28;20424;-81
2023/09/11 04:42:06;;;;;;;132.52;20.05;;;;;;;14.02;100.00;100831.31;5028496;28;20423;-84
2023/09/11 04:44:40;;;;;;;109.93;18.38;;;;;;;14.01;100.00;100826.16;5028785;28;20434;-82
2023/09/11 04:47:08;;;;;;;98.03;19.33;;;;;;;13.90;100.00;100829.03;5028171;28;20435;-81
2023/09/11 04:49:38;;;;;;;117.43;18.92;;;;;;;13.87;100.00;100831.56;5032164;28;20431;-83
2023/09/11 04:52:06;;;;;;;87.60;17.23;;;;;;;13.87;100.00;100828.84;5027383;28;20415;-81
2023/09/11 04:54:39;;;;;;;90.70;17.10;;;;;;;13.92;100.00;100829.56;5030498;28;20764;-82
2023/09/11 04:57:13;;;;;;;24.75;15.80;;;;;;;13.88;100.00;100830.44;5026448;28;20799;-82
2023/09/11 04:59:46;;;;;;;33.60;16.65;;;;;;;13.89;100.00;100830.16;5026225;28;20415;-84
2023/09/11 05:02:14;;;;;;;56.07;17.33;;;;;;;13.91;100.00;100830.66;5021365;28;20454;-82
2023/09/11 05:04:46;;;;;;;39.92;18.52;;;;;;;13.92;100.00;100826.81;5041461;28;21014;-82
2023/09/11 05:07:19;;;;;;;100.17;16.47;;;;;;;13.78;100.00;100820.47;5026404;28;20431;-83
2023/09/11 05:09:47;;;;;;;39.15;16.23;;;;;;;13.82;100.00;100826.97;5044789;28;20431;-82
2023/09/11 05:12:23;;;;;;;57.25;16.63;;;;;;;13.74;100.00;100831.22;5027855;28;21386;-82
2023/09/11 05:14:51;;;;;;;119.38;16.00;;;;;;;13.62;100.00;100830.84;5027881;28;20946;-84
2023/09/11 05:17:24;;;;;;;45.97;16.10;;;;;;;13.73;100.00;100831.50;5044238;28;20438;-81
2023/09/11 05:19:54;;;;;;;90.85;17.27;;;;;;;13.69;100.00;100839.50;5030502;28;20426;-82
2023/09/11 05:22:27;;;;;;;92.15;15.98;;;;;;;13.55;100.00;100838.63;5026703;28;21328;-82
2023/09/11 05:25:00;;;;;;;47.25;15.70;;;;;;;13.64;100.00;100836.81;5028864;28;21313;-83
2023/09/11 05:27:29;;;;;;;75.90;15.75;;;;;;;13.59;100.00;100832.25;5029788;28;20427;-82
2023/09/11 05:29:57;;;;;;;24.90;15.00;;;;;;;13.65;100.00;100833.00;5033265;28;20423;-81
2023/09/11 05:32:32;;;;;;;44.17;16.73;;;;;;;13.70;100.00;100834.81;5031463;28;20423;-83
2023/09/11 05:35:08;;;;;;;46.15;15.45;;;;;;;13.65;100.00;100830.25;5031575;28;20431;-81
2023/09/11 05:37:41;;;;;;;24.07;15.43;;;;;;;13.75;100.00;100835.59;5031720;28;20507;-83
2023/09/11 05:40:14;;;;;;;34.83;16.50;;;;;;;13.80;100.00;100839.34;5029976;28;20414;-81
2023/09/11 05:42:42;;;;;;;36.33;16.20;;;;;;;13.81;100.00;100835.47;5029511;28;20415;-82
2023/09/11 05:45:16;;;;;;;34.58;16.40;;;;;;;13.85;100.00;100833.78;5030315;28;20429;-81
2023/09/11 05:47:49;;;;;;;29.30;14.90;;;;;;;13.84;100.00;100843.13;5031396;28;20430;-83
2023/09/11 05:50:23;;;;;;;28.30;14.55;;;;;;;13.83;100.00;100844.22;5025734;28;20437;-82
2023/09/11 05:52:56;;;;;;;35.90;14.65;;;;;;;13.75;100.00;100841.06;5019981;28;20447;-82
2023/09/11 05:55:25;;;;;;;21.80;14.80;;;;;;;13.88;100.00;100836.75;5020369;28;20777;-85
2023/09/11 05:57:53;;;;;;;59.35;14.93;;;;;;;13.80;100.00;100834.69;5028898;28;20446;-82
2023/09/11 06:00:24;;;;;;;54.33;15.90;;;;;;;13.76;100.00;100833.66;5027945;28;20415;-83
2023/09/11 06:02:57;;;;;;;75.10;14.02;;;;;;;13.86;100.00;100827.19;5043276;28;20942;-81
2023/09/11 06:05:35;;;;;;;45.13;14.30;;;;;;;13.85;100.00;100834.59;5027794;28;20431;-83
2023/09/11 06:08:08;;;;;;;28.55;15.25;;;;;;;13.92;100.00;100835.03;5025496;28;20435;-82
2023/09/11 06:10:41;;;;;;;43.70;14.90;;;;;;;13.93;100.00;100833.09;5028001;28;20910;-82
2023/09/11 06:13:14;;;;;;;21.80;14.50;;;;;;;13.96;100.00;100835.22;5026303;28;20434;-84
2023/09/11 06:15:43;;;;;;;43.35;15.38;;;;;;;14.02;100.00;100835.97;5025197;28;20431;-81
2023/09/11 06:18:16;;;;;;;21.90;15.00;;;;;;;14.14;100.00;100838.22;5025125;28;20490;-82
2023/09/11 06:20:50;;;;;;;84.60;16.30;;;;;;;14.17;100.00;100832.97;5040609;28;20427;-81
2023/09/11 06:23:23;;;;;;;75.15;15.35;;;;;;;14.10;100.00;100833.38;5024480;28;20429;-84
2023/09/11 06:25:57;;;;;;;33.13;15.23;;;;;;;14.25;100.00;100831.47;5023587;28;20430;-81
2023/09/11 06:28:25;;;;;;;31.05;14.82;;;;;;;14.21;100.00;100839.47;5023878;28;20446;-84
2023/09/11 06:30:59;;;;;;;68.45;14.85;;;;;;;14.20;100.00;100843.31;5024266;28;20461;-81
2023/09/11 06:33:32;;;;;;;62.67;14.50;;;;;;;14.20;100.00;100843.31;5024832;28;20453;-83
2023/09/11 06:36:02;;;;;;;73.68;15.75;;;;;;;14.24;100.00;100830.66;5028098;28;20431;-81
2023/09/11 06:38:31;;;;;;;44.38;15.85;;;;;;;14.16;100.00;100838.75;5021424;28;20419;-80
2023/09/11 06:41:04;;;;;;;67.05;17.38;;;;;;;14.23;100.00;100834.50;5024964;28;20451;-81
2023/09/11 06:43:32;;;;;;;67.50;15.23;;;;;;;14.19;100.00;100830.75;5024725;28;20430;-80
2023/09/11 06:46:00;;;;;;;54.72;15.38;;;;;;;14.31;100.00;100826.69;5025317;28;20777;-81
2023/09/11 06:48:28;;;;;;;69.32;16.10;;;;;;;14.45;100.00;100828.34;5027380;28;20442;-84
2023/09/11 06:50:57;;;;;;;52.60;17.48;;;;;;;14.44;100.00;100821.28;5026335;28;20800;-81
2023/09/11 06:53:26;;;;;;;31.77;17.60;;;;;;;14.57;100.00;100818.81;5027396;28;20488;-81
2023/09/11 06:55:59;;;;;;;34.08;17.30;;;;;;;14.63;100.00;100821.19;5027456;28;20449;-82
2023/09/11 06:58:27;;;;;;;34.58;18.70;;;;;;;14.73;100.00;100811.16;5022912;28;20518;-82
2023/09/11 07:01:02;;;;;;;29.93;18.77;;;;;;;14.83;100.00;100812.88;5028785;28;20422;-82
2023/09/11 07:03:30;;;;;;;35.78;20.80;;;;;;;14.99;100.00;100805.16;4995294;28;21546;-84
2023/09/11 07:06:03;;;;;;;36.33;21.25;;;;;;;15.00;100.00;100802.13;5012695;28;20935;-85
2023/09/11 07:08:33;;;;;;;38.85;21.35;;;;;;;15.13;100.00;100806.78;5023802;28;20431;-82
2023/09/11 07:11:01;;;;;;;34.08;20.67;;;;;;;15.21;100.00;100802.47;5004843;28;20454;-82
2023/09/11 07:13:29;;;;;;;33.47;19.88;;;;;;;15.29;100.00;100799.00;5003171;28;20439;-85
2023/09/11 07:15:58;;;;;;;32.42;21.33;;;;;;;15.34;100.00;100797.25;4998917;28;21202;-84
2023/09/11 07:18:27;;;;;;;38.05;22.55;;;;;;;15.38;100.00;100790.84;4997039;28;20423;-82
2023/09/11 07:21:01;;;;;;;41.03;23.63;;;;;;;15.45;100.00;100785.75;5002012;28;20423;-82
2023/09/11 07:23:29;;;;;;;42.13;23.27;;;;;;;15.57;100.00;100787.13;5005311;28;20756;-83
2023/09/11 07:26:04;;;;;;;37.10;21.90;;;;;;;15.54;100.00;100785.81;5006635;28;20435;-85
2023/09/11 07:28:56;;;;;;;35.97;23.20;;;;;;;15.57;100.00;100787.13;4996236;28;20442;-83
2023/09/11 07:31:32;;;;;;;37.17;23.17;;;;;;;15.60;100.00;100792.78;5003662;28;20434;-84
2023/09/11 07:34:00;;;;;;;38.10;23.02;;;;;;;15.66;100.00;100782.53;5006744;28;20435;-85
2023/09/11 07:36:36;;;;;;;38.88;23.20;;;;;;;15.72;100.00;100783.22;5002928;28;20454;-83
2023/09/11 07:39:04;;;;;;;41.10;24.30;;;;;;;15.83;100.00;100783.81;5001567;28;21236;-84
2023/09/11 07:41:39;;;;;;;39.17;24.17;;;;;;;15.79;100.00;100786.31;4999256;28;20431;-86
2023/09/11 07:44:12;;;;;;;37.67;24.15;;;;;;;15.80;100.00;100780.56;4998943;28;20442;-83
2023/09/11 07:46:46;;;;;;;44.15;25.60;;;;;;;15.92;100.00;100788.22;5000785;28;20427;-83
2023/09/11 07:49:19;;;;;;;38.45;24.75;;;;;;;16.04;100.00;100784.09;4999258;28;20432;-84
2023/09/11 07:51:52;;;;;;;41.45;25.60;;;;;;;16.10;100.00;100785.56;5004051;28;20438;-83
2023/09/11 07:54:21;;;;;;;42.50;25.47;;;;;;;16.12;100.00;100786.88;5004576;28;20431;-84
2023/09/11 07:56:55;;;;;;;40.63;25.50;;;;;;;16.25;100.00;100779.66;5006538;28;21467;-82
2023/09/11 07:59:28;;;;;;;38.05;24.27;;;;;;;16.26;100.00;100775.00;5004358;28;20454;-81
2023/09/11 08:01:58;;;;;;;38.75;25.23;;;;;;;16.25;100.00;100765.94;5007192;28;20435;-85
2023/09/11 08:04:26;;;;;;;38.03;24.52;;;;;;;16.31;100.00;100764.69;5000031;28;21085;-83
2023/09/11 08:06:54;;;;;;;40.13;24.33;;;;;;;16.38;100.00;100766.16;4997996;28;20446;-83
2023/09/11 08:09:27;;;;;;;41.30;25.40;;;;;;;16.41;100.00;100768.28;5005379;28;20453;-83
2023/09/11 08:12:02;;;;;;;36.60;24.50;;;;;;;16.48;100.00;100772.16;5000000;28;20427;-80
2023/09/11 08:14:31;;;;;;;35.47;24.52;;;;;;;16.54;100.00;100767.34;5002976;28;20514;-84
2023/09/11 08:16:59;;;;;;;40.45;24.38;;;;;;;16.62;100.00;100769.31;5000533;28;20445;-82
2023/09/11 08:19:32;;;;;;;36.63;24.42;;;;;;;16.66;100.00;100767.53;5001534;28;20434;-83
2023/09/11 08:22:00;;;;;;;41.65;24.98;;;;;;;16.66;100.00;100772.25;4997284;28;20442;-81
2023/09/11 08:24:29;;;;;;;38.47;24.83;;;;;;;16.70;100.00;100764.97;5002026;28;20435;-83
2023/09/11 08:27:04;;;;;;;36.90;24.58;;;;;;;16.83;100.00;100775.03;4996998;28;20435;-84
2023/09/11 08:29:32;;;;;;;39.00;25.17;;;;;;;16.93;100.00;100765.72;4998630;28;20442;-84
2023/09/11 08:32:00;;;;;;;36.63;25.10;;;;;;;17.11;100.00;100763.78;4993238;28;20466;-82
2023/09/11 08:34:28;;;;;;;39.83;25.58;;;;;;;17.12;100.00;100764.59;4997395;28;20439;-84
2023/09/11 08:36:56;;;;;;;38.20;24.83;;;;;;;17.15;100.00;100769.44;5000142;28;21137;-82
2023/09/11 08:39:29;;;;;;;38.53;24.52;;;;;;;17.28;100.00;100760.22;4997118;28;20450;-83
2023/09/11 08:42:06;;;;;;;37.57;25.03;;;;;;;17.38;100.00;100761.06;5000403;28;20434;-83
2023/09/11 08:44:39;;;;;;;40.35;25.50;;;;;;;17.42;100.00;100753.78;4996213;28;20430;-83
2023/09/11 08:47:09;;;;;;;36.78;23.55;;;;;;;17.49;100.00;100751.31;4997519;28;20426;-83
2023/09/11 08:49:44;;;;;;;37.03;24.57;;;;;;;17.48;100.00;100763.47;4997666;28;20449;-82
2023/09/11 08:52:18;;;;;;;34.20;23.95;;;;;;;17.56;100.00;100746.13;4993191;28;20430;-81
2023/09/11 08:54:54;;;;;;;35.65;24.13;;;;;;;17.64;100.00;100748.06;4996430;28;20446;-83
2023/09/11 08:57:30;;;;;;;37.65;25.45;;;;;;;17.74;100.00;100740.63;4994902;28;20442;-84
2023/09/11 09:00:07;;;;;;;36.95;24.75;;;;;;;17.86;100.00;100749.00;5005970;28;20434;-83
2023/09/11 09:02:41;;;;;;;35.35;23.25;;;;;;;18.01;100.00;100750.47;5023060;28;20427;-83
2023/09/11 09:05:16;;;;;;;30.50;22.02;;;;;;;18.08;100.00;100756.25;5009021;28;20423;-84
2023/09/11 09:07:50;;;;;;;34.58;22.58;;;;;;;18.36;100.00;100744.81;5005710;28;20805;-81
2023/09/11 09:10:25;;;;;;;29.95;21.35;;;;;;;18.40;100.00;100753.22;5000878;28;20431;-83
2023/09/11 09:12:55;;;;;;;30.70;21.30;;;;;;;18.43;100.00;100744.28;4996209;28;20438;-83
2023/09/11 09:15:24;;;;;;;31.43;20.60;;;;;;;18.43;100.00;100741.53;5001702;28;20446;-82
2023/09/11 09:17:53;;;;;;;34.63;22.67;;;;;;;18.42;100.00;100737.16;5005203;28;20897;-84
2023/09/11 09:20:30;;;;;;;32.73;21.27;;;;;;;18.47;100.00;100734.22;5004526;28;20439;-83
2023/09/11 09:23:03;;;;;;;30.87;20.87;;;;;;;18.58;100.00;100737.41;5005569;28;20526;-83
2023/09/11 09:25:37;;;;;;;26.65;18.50;;;;;;;18.67;100.00;100733.47;5011669;28;20435;-81
2023/09/11 09:28:07;;;;;;;25.90;18.75;;;;;;;18.88;100.00;100729.97;5026960;28;20891;-83
2023/09/11 09:30:41;;;;;;;25.52;18.20;;;;;;;18.97;100.00;100724.38;5010247;28;20482;-85
2023/09/11 09:33:15;;;;;;;26.75;18.73;;;;;;;18.94;100.00;100722.28;5017026;28;20506;-84
2023/09/11 09:35:44;;;;;;;26.05;17.92;;;;;;;19.07;100.00;100721.22;5009447;28;20426;-85
2023/09/11 09:38:14;;;;;;;23.40;17.55;;;;;;;19.18;100.00;100719.66;5028375;28;20419;-84
2023/09/11 09:40:42;;;;;;;23.25;17.25;;;;;;;19.36;100.00;100722.25;5008642;28;20436;-85
2023/09/11 09:43:17;;;;;;;23.42;16.80;;;;;;;19.51;100.00;100718.88;5011179;28;21108;-84
2023/09/11 09:45:45;;;;;;;23.73;15.43;;;;;;;19.62;100.00;100715.69;5005831;28;20426;-84
2023/09/11 09:48:16;;;;;;;21.00;14.32;;;;;;;19.73;100.00;100714.09;5002904;28;20427;-85
2023/09/11 09:50:53;;;;;;;21.42;15.00;;;;;;;19.90;100.00;100706.81;5005395;28;20411;-84
2023/09/11 09:53:28;;;;;;;18.33;13.57;;;;;;;20.00;100.00;100709.13;5008079;28;20454;-85
2023/09/11 09:56:03;;;;;;;20.58;14.45;;;;;;;19.94;100.00;100702.22;5002696;28;20439;-85
2023/09/11 09:58:40;;;;;;;21.23;14.43;;;;;;;19.96;100.00;100697.16;5005726;28;21244;-83
2023/09/11 10:01:15;;;;;;;21.58;13.60;;;;;;;20.08;100.00;100701.88;5004116;28;21081;-83
2023/09/11 10:03:50;;;;;;;18.38;13.10;;;;;;;20.24;100.00;100694.53;4982667;28;20434;-86
2023/09/11 10:06:20;;;;;;;22.08;13.98;;;;;;;20.17;100.00;100695.09;5010846;28;21016;-83
2023/09/11 10:09:05;;;;;;;21.58;13.20;;;;;;;20.17;100.00;100702.59;5007398;28;20453;-83
2023/09/11 10:11:39;;;;;;;17.17;12.00;;;;;;;20.24;100.00;100697.28;5015139;28;20435;-83
2023/09/11 10:14:14;;;;;;;16.67;12.10;;;;;;;20.50;100.00;100693.38;5004382;28;20431;-83
2023/09/11 10:16:47;;;;;;;18.02;12.52;;;;;;;20.59;100.00;100694.06;5005778;28;20430;-83
2023/09/11 10:19:22;;;;;;;20.50;13.02;;;;;;;20.61;100.00;100696.47;5003557;28;20427;-86
2023/09/11 10:21:55;;;;;;;14.95;11.35;;;;;;;20.75;100.00;100688.63;5000851;28;20439;-85
2023/09/11 10:24:29;;;;;;;17.95;11.10;;;;;;;20.88;100.00;100695.75;5005396;28;21363;-84
2023/09/11 10:27:01;;;;;;;19.38;11.68;;;;;;;20.94;100.00;100696.31;5003824;28;20442;-84
2023/09/11 10:29:46;;;;;;;18.52;11.13;;;;;;;21.22;100.00;100690.78;5002666;28;20431;-87
2023/09/11 10:32:25;;;;;;;16.95;10.73;;;;;;;21.47;100.00;100689.88;5008563;28;20442;-85
2023/09/11 10:34:53;;;;;;;18.38;10.50;;;;;;;21.54;100.00;100690.09;5003339;28;20442;-84
2023/09/11 10:37:30;;;;;;;15.53;10.27;;;;;;;21.62;100.00;100683.59;5011625;28;20434;-85
2023/09/11 10:40:06;;;;;;;14.45;9.98;;;;;;;21.77;100.00;100686.75;5005705;28;20435;-86
2023/09/11 10:42:41;;;;;;;17.00;10.40;;;;;;;21.85;100.00;100685.75;5009436;28;20431;-85
2023/09/11 10:45:29;;;;;;;17.20;10.98;;;;;;;21.92;100.00;100685.94;5008901;28;20419;-86
2023/09/11 10:48:03;;;;;;;17.58;10.77;;;;;;;21.93;100.00;100684.78;5006233;28;20420;-85
2023/09/11 10:50:38;;;;;;;18.87;10.80;;;;;;;21.87;100.00;100673.13;5003914;28;20475;-86
2023/09/11 10:53:07;;;;;;;16.13;10.63;;;;;;;21.94;100.00;100672.50;5002426;28;20438;-83
2023/09/11 10:55:36;;;;;;;17.00;10.20;;;;;;;22.00;100.00;100671.09;5003332;28;20946;-85
2023/09/11 10:58:05;;;;;;;20.30;15.13;;;;;;;22.22;100.00;100672.44;5001555;28;20436;-84
2023/09/11 11:00:38;;;;;;;23.15;12.75;;;;;;;22.47;100.00;100671.41;5010602;28;20497;-86
2023/09/11 11:03:07;;;;;;;18.65;12.10;;;;;;;22.48;100.00;100670.25;4981079;28;20450;-85
2023/09/11 11:05:40;;;;;;;20.30;10.32;;;;;;;22.60;100.00;100667.34;5004729;28;20434;-88
2023/09/11 11:08:16;;;;;;;16.08;9.65;;;;;;;22.76;100.00;100665.34;5002162;28;20431;-86
2023/09/11 11:10:51;;;;;;;18.73;10.68;;;;;;;22.60;100.00;100664.59;5005666;28;20434;-82
2023/09/11 11:13:25;;;;;;;16.52;9.75;;;;;;;22.70;100.00;100663.22;5013262;28;21093;-84
2023/09/11 11:16:25;;;;;;;15.65;10.05;;;;;;;22.74;100.00;100656.59;5003211;28;22374;-82
2023/09/11 11:18:54;;;;;;;16.50;9.30;;;;;;;23.02;100.00;100657.53;5006194;28;20439;-82
2023/09/11 11:21:38;;;;;;;18.02;10.05;;;;;;;23.00;100.00;100652.34;5003070;28;21263;-85
2023/09/11 11:24:11;;;;;;;17.33;9.90;;;;;;;22.89;100.00;100648.56;5006030;28;20509;-82